sensor_id;sensor_type;location;lat;lon;timestamp;pressure;altitude;pressure_sealevel;temperature;humidity
3968;BME280;9221;42.646;23.380;2022-11-18T00:01:18;93603.84;;;10.35;99.89
3968;BME280;9221;42.646;23.380;2022-11-18T00:03:44;93561.53;;;10.28;100.00
3968;BME280;9221;42.646;23.380;2022-11-18T00:06:12;93565.09;;;10.43;100.00
3968;BME280;9221;42.646;23.380;2022-11-18T00:08:38;93527.75;;;9.69;98.60
3968;BME280;9221;42.646;23.380;2022-11-18T00:11:08;93574.81;;;9.63;100.00
3968;BME280;9221;42.646;23.380;2022-11-18T00:13:36;93547.13;;;9.76;100.00
3968;BME280;9221;42.646;23.380;2022-11-18T00:16:20;93493.75;;;9.59;100.00
3968;BME280;9221;42.646;23.380;2022-11-18T00:18:46;93604.94;;;10.09;100.00
3968;BME280;9221;42.646;23.380;2022-11-18T00:21:11;93593.84;;;10.22;100.00
3968;BME280;9221;42.646;23.380;2022-11-18T00:23:37;93566.28;;;10.01;100.00
3968;BME280;9221;42.646;23.380;2022-11-18T00:26:10;93490.50;;;9.40;100.00
3968;BME280;9221;42.646;23.380;2022-11-18T00:28:37;93548.78;;;9.21;100.00
3968;BME280;9221;42.646;23.380;2022-11-18T00:31:08;93601.66;;;9.59;100.00
3968;BME280;9221;42.646;23.380;2022-11-18T00:33:34;93513.63;;;9.22;100.00
3968;BME280;9221;42.646;23.380;2022-11-18T00:36:02;93604.91;;;9.77;100.00
3968;BME280;9221;42.646;23.380;2022-11-18T00:38:28;93536.94;;;9.73;100.00
3968;BME280;9221;42.646;23.380;2022-11-18T00:41:11;93647.91;;;10.09;100.00
3968;BME280;9221;42.646;23.380;2022-11-18T00:43:37;93535.38;;;9.55;100.00
3968;BME280;9221;42.646;23.380;2022-11-18T00:46:04;93528.31;;;9.56;100.00
3968;BME280;9221;42.646;23.380;2022-11-18T00:48:30;93511.06;;;9.45;100.00
3968;BME280;9221;42.646;23.380;2022-11-18T00:50:57;93553.50;;;9.90;100.00
3968;BME280;9221;42.646;23.380;2022-11-18T00:53:25;93583.63;;;9.87;100.00
3968;BME280;9221;42.646;23.380;2022-11-18T00:55:51;93527.31;;;9.57;100.00
3968;BME280;9221;42.646;23.380;2022-11-18T00:58:17;93587.50;;;9.60;100.00
3968;BME280;9221;42.646;23.380;2022-11-18T01:00:44;93558.50;;;9.76;100.00
3968;BME280;9221;42.646;23.380;2022-11-18T01:03:11;93538.41;;;9.75;100.00
3968;BME280;9221;42.646;23.380;2022-11-18T01:05:37;93379.94;;;8.77;100.00
3968;BME280;9221;42.646;23.380;2022-11-18T01:08:05;93471.75;;;9.52;100.00
3968;BME280;9221;42.646;23.380;2022-11-18T01:10:32;93589.41;;;9.82;100.00
3968;BME280;9221;42.646;23.380;2022-11-18T01:12:58;93565.19;;;9.87;100.00
3968;BME280;9221;42.646;23.380;2022-11-18T01:15:45;93392.75;;;8.89;100.00
3968;BME280;9221;42.646;23.380;2022-11-18T01:18:11;93596.25;;;10.00;100.00
3968;BME280;9221;42.646;23.380;2022-11-18T01:20:36;93482.28;;;9.52;100.00
3968;BME280;9221;42.646;23.380;2022-11-18T01:23:02;93533.19;;;9.67;100.00
3968;BME280;9221;42.646;23.380;2022-11-18T01:25:28;93486.91;;;9.41;100.00
3968;BME280;9221;42.646;23.380;2022-11-18T01:27:54;93542.50;;;9.86;100.00
3968;BME280;9221;42.646;23.380;2022-11-18T01:30:20;93593.16;;;9.88;100.00
3968;BME280;9221;42.646;23.380;2022-11-18T01:32:46;93587.06;;;9.88;100.00
3968;BME280;9221;42.646;23.380;2022-11-18T01:35:11;93547.69;;;9.63;100.00
3968;BME280;9221;42.646;23.380;2022-11-18T01:37:37;93576.69;;;9.94;100.00
3968;BME280;9221;42.646;23.380;2022-11-18T01:40:04;93538.13;;;9.62;100.00
3968;BME280;9221;42.646;23.380;2022-11-18T01:42:30;93595.88;;;9.63;99.93
3968;BME280;9221;42.646;23.380;2022-11-18T01:47:32;93485.78;;;9.36;100.00
3968;BME280;9221;42.646;23.380;2022-11-18T01:50:00;93570.09;;;9.51;100.00
3968;BME280;9221;42.646;23.380;2022-11-18T01:52:26;93500.44;;;9.30;100.00
3968;BME280;9221;42.646;23.380;2022-11-18T01:54:55;93510.75;;;9.40;100.00
3968;BME280;9221;42.646;23.380;2022-11-18T01:57:22;93545.56;;;9.58;100.00
3968;BME280;9221;42.646;23.380;2022-11-18T01:59:50;93550.09;;;9.25;100.00
3968;BME280;9221;42.646;23.380;2022-11-18T02:02:19;93541.19;;;9.42;100.00
3968;BME280;9221;42.646;23.380;2022-11-18T02:04:47;93543.34;;;9.22;100.00
3968;BME280;9221;42.646;23.380;2022-11-18T02:07:14;93619.13;;;9.52;100.00
3968;BME280;9221;42.646;23.380;2022-11-18T02:09:41;93542.69;;;9.37;100.00
3968;BME280;9221;42.646;23.380;2022-11-18T02:12:06;93572.69;;;9.59;100.00
3968;BME280;9221;42.646;23.380;2022-11-18T02:14:36;93584.38;;;9.56;100.00
3968;BME280;9221;42.646;23.380;2022-11-18T02:17:20;93555.47;;;9.48;100.00
3968;BME280;9221;42.646;23.380;2022-11-18T02:30:22;93577.09;;;8.86;100.00
3968;BME280;9221;42.646;23.380;2022-11-18T02:33:07;93597.13;;;8.95;100.00
3968;BME280;9221;42.646;23.380;2022-11-18T02:35:55;93558.34;;;9.13;100.00
3968;BME280;9221;42.646;23.380;2022-11-18T02:38:25;93491.69;;;8.49;100.00
3968;BME280;9221;42.646;23.380;2022-11-18T02:40:55;93548.50;;;8.99;100.00
3968;BME280;9221;42.646;23.380;2022-11-18T02:43:39;93547.34;;;9.02;100.00
3968;BME280;9221;42.646;23.380;2022-11-18T02:46:09;93528.13;;;8.93;100.00
3968;BME280;9221;42.646;23.380;2022-11-18T02:48:41;93478.88;;;8.37;100.00
3968;BME280;9221;42.646;23.380;2022-11-18T02:51:10;93548.50;;;8.91;100.00
3968;BME280;9221;42.646;23.380;2022-11-18T02:53:39;93476.88;;;8.06;100.00
3968;BME280;9221;42.646;23.380;2022-11-18T02:56:06;93607.66;;;8.70;100.00
3968;BME280;9221;42.646;23.380;2022-11-18T02:58:32;93522.88;;;8.43;100.00
3968;BME280;9221;42.646;23.380;2022-11-18T03:00:59;93553.38;;;8.28;100.00
3968;BME280;9221;42.646;23.380;2022-11-18T03:03:29;93613.31;;;8.24;100.00
3968;BME280;9221;42.646;23.380;2022-11-18T03:06:21;93546.50;;;8.27;100.00
3968;BME280;9221;42.646;23.380;2022-11-18T03:08:54;93638.19;;;8.55;100.00
3968;BME280;9221;42.646;23.380;2022-11-18T03:11:25;93597.13;;;8.70;100.00
3968;BME280;9221;42.646;23.380;2022-11-18T03:16:37;93538.97;;;8.57;100.00
3968;BME280;9221;42.646;23.380;2022-11-18T03:19:12;93556.75;;;8.63;100.00
3968;BME280;9221;42.646;23.380;2022-11-18T03:21:45;93549.50;;;8.65;100.00
3968;BME280;9221;42.646;23.380;2022-11-18T03:24:32;93481.16;;;8.40;100.00
3968;BME280;9221;42.646;23.380;2022-11-18T03:27:09;93541.94;;;8.78;100.00
3968;BME280;9221;42.646;23.380;2022-11-18T03:29:41;93548.03;;;8.87;100.00
3968;BME280;9221;42.646;23.380;2022-11-18T03:32:15;93578.34;;;8.40;100.00
3968;BME280;9221;42.646;23.380;2022-11-18T03:34:50;93486.72;;;8.12;100.00
3968;BME280;9221;42.646;23.380;2022-11-18T03:37:20;93553.13;;;8.64;100.00
3968;BME280;9221;42.646;23.380;2022-11-18T03:39:53;93501.19;;;8.17;100.00
3968;BME280;9221;42.646;23.380;2022-11-18T03:42:34;93524.47;;;8.03;100.00
3968;BME280;9221;42.646;23.380;2022-11-18T03:45:09;93540.09;;;8.29;100.00
3968;BME280;9221;42.646;23.380;2022-11-18T03:47:40;93557.72;;;8.54;100.00
3968;BME280;9221;42.646;23.380;2022-11-18T03:50:12;93528.16;;;8.52;100.00
3968;BME280;9221;42.646;23.380;2022-11-18T03:52:40;93544.84;;;8.26;100.00
3968;BME280;9221;42.646;23.380;2022-11-18T03:55:29;93481.47;;;8.04;100.00
3968;BME280;9221;42.646;23.380;2022-11-18T03:58:04;93532.53;;;8.26;100.00
3968;BME280;9221;42.646;23.380;2022-11-18T04:00:36;93494.63;;;8.21;100.00
3968;BME280;9221;42.646;23.380;2022-11-18T04:03:03;93528.47;;;8.57;100.00
3968;BME280;9221;42.646;23.380;2022-11-18T04:05:33;93488.41;;;8.30;100.00
3968;BME280;9221;42.646;23.380;2022-11-18T04:08:01;93537.00;;;8.34;100.00
3968;BME280;9221;42.646;23.380;2022-11-18T04:10:44;93460.78;;;7.76;100.00
3968;BME280;9221;42.646;23.380;2022-11-18T04:13:22;93522.19;;;8.25;100.00
3968;BME280;9221;42.646;23.380;2022-11-18T04:15:49;93472.63;;;7.97;100.00
3968;BME280;9221;42.646;23.380;2022-11-18T04:18:15;93548.09;;;8.11;100.00
3968;BME280;9221;42.646;23.380;2022-11-18T04:20:40;93560.97;;;8.31;100.00
3968;BME280;9221;42.646;23.380;2022-11-18T04:23:06;93527.44;;;8.08;100.00
3968;BME280;9221;42.646;23.380;2022-11-18T04:25:32;93464.91;;;7.95;100.00
3968;BME280;9221;42.646;23.380;2022-11-18T04:27:58;93542.59;;;8.39;100.00
3968;BME280;9221;42.646;23.380;2022-11-18T04:30:24;93543.56;;;8.38;100.00
3968;BME280;9221;42.646;23.380;2022-11-18T04:32:49;93552.41;;;8.21;100.00
3968;BME280;9221;42.646;23.380;2022-11-18T04:35:15;93553.06;;;8.31;100.00
3968;BME280;9221;42.646;23.380;2022-11-18T04:37:40;93543.22;;;8.25;100.00
3968;BME280;9221;42.646;23.380;2022-11-18T04:40:06;93563.53;;;8.23;100.00
3968;BME280;9221;42.646;23.380;2022-11-18T04:42:32;93576.22;;;8.36;100.00
3968;BME280;9221;42.646;23.380;2022-11-18T04:44:58;93544.88;;;8.34;100.00
3968;BME280;9221;42.646;23.380;2022-11-18T04:47:23;93529.06;;;8.01;100.00
3968;BME280;9221;42.646;23.380;2022-11-18T04:49:49;93527.41;;;7.92;100.00
3968;BME280;9221;42.646;23.380;2022-11-18T04:52:14;93531.38;;;8.12;100.00
3968;BME280;9221;42.646;23.380;2022-11-18T04:54:40;93567.19;;;8.22;100.00
3968;BME280;9221;42.646;23.380;2022-11-18T04:57:05;93589.16;;;8.21;100.00
3968;BME280;9221;42.646;23.380;2022-11-18T04:59:32;93565.19;;;8.16;100.00
3968;BME280;9221;42.646;23.380;2022-11-18T05:01:58;93486.47;;;7.56;100.00
3968;BME280;9221;42.646;23.380;2022-11-18T05:04:27;93586.81;;;8.01;100.00
3968;BME280;9221;42.646;23.380;2022-11-18T05:06:54;93528.75;;;8.12;100.00
3968;BME280;9221;42.646;23.380;2022-11-18T05:09:20;93539.25;;;8.12;100.00
3968;BME280;9221;42.646;23.380;2022-11-18T05:11:46;93559.31;;;8.30;100.00
3968;BME280;9221;42.646;23.380;2022-11-18T05:14:30;93553.00;;;8.06;100.00
3968;BME280;9221;42.646;23.380;2022-11-18T05:16:57;93553.66;;;8.00;100.00
3968;BME280;9221;42.646;23.380;2022-11-18T05:19:23;93640.81;;;8.04;100.00
3968;BME280;9221;42.646;23.380;2022-11-18T05:21:48;93522.16;;;7.92;100.00
3968;BME280;9221;42.646;23.380;2022-11-18T05:24:14;93576.72;;;8.39;100.00
3968;BME280;9221;42.646;23.380;2022-11-18T05:26:40;93563.31;;;8.51;100.00
3968;BME280;9221;42.646;23.380;2022-11-18T05:29:05;93563.13;;;8.52;100.00
3968;BME280;9221;42.646;23.380;2022-11-18T05:31:31;93570.53;;;8.65;100.00
3968;BME280;9221;42.646;23.380;2022-11-18T05:33:57;93579.72;;;8.61;100.00
3968;BME280;9221;42.646;23.380;2022-11-18T05:36:22;93492.00;;;8.37;100.00
3968;BME280;9221;42.646;23.380;2022-11-18T05:38:48;93593.34;;;8.56;100.00
3968;BME280;9221;42.646;23.380;2022-11-18T05:41:15;93527.84;;;8.55;100.00
3968;BME280;9221;42.646;23.380;2022-11-18T05:43:59;93577.09;;;8.69;100.00
3968;BME280;9221;42.646;23.380;2022-11-18T05:46:26;93536.81;;;8.44;100.00
3968;BME280;9221;42.646;23.380;2022-11-18T05:48:51;93543.88;;;8.27;100.00
3968;BME280;9221;42.646;23.380;2022-11-18T05:51:16;93540.97;;;8.46;100.00
3968;BME280;9221;42.646;23.380;2022-11-18T05:53:42;93412.53;;;7.69;100.00
3968;BME280;9221;42.646;23.380;2022-11-18T05:56:34;93570.38;;;8.91;100.00
3968;BME280;9221;42.646;23.380;2022-11-18T05:59:01;93547.19;;;8.70;100.00
3968;BME280;9221;42.646;23.380;2022-11-18T06:01:34;93579.72;;;8.69;100.00
3968;BME280;9221;42.646;23.380;2022-11-18T06:04:03;93494.16;;;8.50;100.00
3968;BME280;9221;42.646;23.380;2022-11-18T06:06:32;93576.78;;;8.89;100.00
3968;BME280;9221;42.646;23.380;2022-11-18T06:09:03;93493.66;;;8.63;100.00
3968;BME280;9221;42.646;23.380;2022-11-18T06:11:31;93586.28;;;9.14;100.00
3968;BME280;9221;42.646;23.380;2022-11-18T06:14:06;93553.75;;;9.07;100.00
3968;BME280;9221;42.646;23.380;2022-11-18T06:16:35;93524.50;;;8.86;100.00
3968;BME280;9221;42.646;23.380;2022-11-18T06:19:03;93577.25;;;9.09;100.00
3968;BME280;9221;42.646;23.380;2022-11-18T06:21:29;93532.34;;;9.27;100.00
3968;BME280;9221;42.646;23.380;2022-11-18T06:23:55;93553.69;;;9.32;100.00
3968;BME280;9221;42.646;23.380;2022-11-18T06:26:20;93581.84;;;9.07;100.00
3968;BME280;9221;42.646;23.380;2022-11-18T06:28:47;93553.06;;;9.30;100.00
3968;BME280;9221;42.646;23.380;2022-11-18T06:31:13;93526.09;;;9.20;100.00
3968;BME280;9221;42.646;23.380;2022-11-18T06:33:41;93555.81;;;9.45;100.00
3968;BME280;9221;42.646;23.380;2022-11-18T06:36:07;93550.53;;;9.45;100.00
3968;BME280;9221;42.646;23.380;2022-11-18T06:38:32;93521.81;;;9.35;100.00
3968;BME280;9221;42.646;23.380;2022-11-18T06:41:01;93546.03;;;9.62;100.00
3968;BME280;9221;42.646;23.380;2022-11-18T06:43:26;93583.44;;;9.49;100.00
3968;BME280;9221;42.646;23.380;2022-11-18T06:46:07;93525.97;;;8.96;100.00
3968;BME280;9221;42.646;23.380;2022-11-18T06:48:52;93470.81;;;8.80;100.00
3968;BME280;9221;42.646;23.380;2022-11-18T06:51:17;93535.75;;;9.36;100.00
3968;BME280;9221;42.646;23.380;2022-11-18T06:53:43;93485.84;;;9.11;100.00
3968;BME280;9221;42.646;23.380;2022-11-18T06:56:11;93511.34;;;9.10;100.00
3968;BME280;9221;42.646;23.380;2022-11-18T06:58:37;93500.34;;;8.98;100.00
3968;BME280;9221;42.646;23.380;2022-11-18T07:01:17;93585.22;;;9.48;100.00
3968;BME280;9221;42.646;23.380;2022-11-18T07:03:44;93495.16;;;9.30;100.00
3968;BME280;9221;42.646;23.380;2022-11-18T07:06:11;93599.66;;;9.69;100.00
3968;BME280;9221;42.646;23.380;2022-11-18T07:08:39;93567.47;;;9.51;100.00
3968;BME280;9221;42.646;23.380;2022-11-18T07:11:08;93559.78;;;9.80;100.00
3968;BME280;9221;42.646;23.380;2022-11-18T07:13:34;93539.88;;;9.78;100.00
3968;BME280;9221;42.646;23.380;2022-11-18T07:16:07;93504.28;;;9.59;100.00
3968;BME280;9221;42.646;23.380;2022-11-18T07:18:34;93449.84;;;9.51;100.00
3968;BME280;9221;42.646;23.380;2022-11-18T07:21:05;93570.78;;;10.24;100.00
3968;BME280;9221;42.646;23.380;2022-11-18T07:23:32;93540.41;;;9.73;100.00
3968;BME280;9221;42.646;23.380;2022-11-18T07:25:58;93525.72;;;9.47;100.00
3968;BME280;9221;42.646;23.380;2022-11-18T07:28:24;93514.25;;;9.72;100.00
3968;BME280;9221;42.646;23.380;2022-11-18T07:30:49;93597.88;;;10.01;100.00
3968;BME280;9221;42.646;23.380;2022-11-18T07:33:15;93551.06;;;10.11;100.00
3968;BME280;9221;42.646;23.380;2022-11-18T07:35:40;93424.69;;;9.48;100.00
3968;BME280;9221;42.646;23.380;2022-11-18T07:38:06;93511.81;;;10.25;100.00
3968;BME280;9221;42.646;23.380;2022-11-18T07:40:31;93537.34;;;10.56;100.00
3968;BME280;9221;42.646;23.380;2022-11-18T07:42:57;93459.03;;;10.33;100.00
3968;BME280;9221;42.646;23.380;2022-11-18T07:45:22;93450.09;;;9.96;100.00
3968;BME280;9221;42.646;23.380;2022-11-18T07:47:48;93541.88;;;10.39;100.00
3968;BME280;9221;42.646;23.380;2022-11-18T07:50:15;93469.66;;;10.25;100.00
3968;BME280;9221;42.646;23.380;2022-11-18T07:52:41;93495.13;;;10.79;100.00
3968;BME280;9221;42.646;23.380;2022-11-18T07:55:07;93530.78;;;10.52;100.00
3968;BME280;9221;42.646;23.380;2022-11-18T07:57:32;93422.06;;;10.03;100.00
3968;BME280;9221;42.646;23.380;2022-11-18T07:59:58;93546.94;;;10.72;100.00
3968;BME280;9221;42.646;23.380;2022-11-18T08:02:23;93518.75;;;10.72;100.00
3968;BME280;9221;42.646;23.380;2022-11-18T08:04:48;93458.94;;;10.49;100.00
3968;BME280;9221;42.646;23.380;2022-11-18T08:07:14;93504.50;;;10.81;100.00
3968;BME280;9221;42.646;23.380;2022-11-18T08:09:39;93549.38;;;10.96;100.00
3968;BME280;9221;42.646;23.380;2022-11-18T08:12:05;93562.78;;;10.87;100.00
3968;BME280;9221;42.646;23.380;2022-11-18T08:14:30;93538.03;;;10.49;100.00
3968;BME280;9221;42.646;23.380;2022-11-18T08:16:56;93528.75;;;10.54;100.00
3968;BME280;9221;42.646;23.380;2022-11-18T08:19:21;93599.16;;;11.14;100.00
3968;BME280;9221;42.646;23.380;2022-11-18T08:21:47;93592.44;;;11.12;100.00
3968;BME280;9221;42.646;23.380;2022-11-18T08:24:12;93556.59;;;11.17;100.00
3968;BME280;9221;42.646;23.380;2022-11-18T08:26:38;93534.59;;;11.70;100.00
3968;BME280;9221;42.646;23.380;2022-11-18T08:29:03;93539.50;;;11.73;100.00
3968;BME280;9221;42.646;23.380;2022-11-18T08:31:29;93528.72;;;12.19;100.00
3968;BME280;9221;42.646;23.380;2022-11-18T08:34:04;93545.91;;;13.45;100.00
3968;BME280;9221;42.646;23.380;2022-11-18T08:36:32;93497.38;;;14.35;95.44
3968;BME280;9221;42.646;23.380;2022-11-18T08:39:00;93470.75;;;14.83;89.46
3968;BME280;9221;42.646;23.380;2022-11-18T08:41:34;93526.28;;;15.18;84.59
3968;BME280;9221;42.646;23.380;2022-11-18T08:44:00;93439.81;;;13.53;88.30
3968;BME280;9221;42.646;23.380;2022-11-18T08:46:27;93518.09;;;14.04;90.81
3968;BME280;9221;42.646;23.380;2022-11-18T08:48:52;93571.88;;;14.40;91.29
3968;BME280;9221;42.646;23.380;2022-11-18T08:51:18;93516.13;;;13.71;90.12
3968;BME280;9221;42.646;23.380;2022-11-18T08:53:43;93484.28;;;13.65;91.36
3968;BME280;9221;42.646;23.380;2022-11-18T08:56:14;93495.34;;;13.75;90.79
3968;BME280;9221;42.646;23.380;2022-11-18T08:58:40;93454.47;;;13.49;90.34
3968;BME280;9221;42.646;23.380;2022-11-18T09:01:06;93402.81;;;12.97;92.04
3968;BME280;9221;42.646;23.380;2022-11-18T09:03:32;93462.63;;;13.19;92.77
3968;BME280;9221;42.646;23.380;2022-11-18T09:06:09;93476.25;;;13.16;92.79
3968;BME280;9221;42.646;23.380;2022-11-18T09:08:35;93446.34;;;13.23;94.71
3968;BME280;9221;42.646;23.380;2022-11-18T09:11:15;93382.31;;;13.47;93.12
3968;BME280;9221;42.646;23.380;2022-11-18T09:13:40;93444.16;;;14.30;91.99
3968;BME280;9221;42.646;23.380;2022-11-18T09:16:07;93434.41;;;14.77;88.98
3968;BME280;9221;42.646;23.380;2022-11-18T09:18:33;93459.50;;;14.68;85.48
3968;BME280;9221;42.646;23.380;2022-11-18T09:21:04;93431.06;;;14.35;86.78
3968;BME280;9221;42.646;23.380;2022-11-18T09:23:31;93380.44;;;13.96;86.94
3968;BME280;9221;42.646;23.380;2022-11-18T09:26:04;93421.34;;;13.67;88.32
3968;BME280;9221;42.646;23.380;2022-11-18T09:28:31;93370.25;;;13.38;89.74
3968;BME280;9221;42.646;23.380;2022-11-18T09:30:57;93332.84;;;13.06;89.34
3968;BME280;9221;42.646;23.380;2022-11-18T09:33:23;93485.94;;;13.66;90.17
3968;BME280;9221;42.646;23.380;2022-11-18T09:35:48;93370.75;;;13.13;89.59
3968;BME280;9221;42.646;23.380;2022-11-18T09:38:14;93461.09;;;13.03;90.61
3968;BME280;9221;42.646;23.380;2022-11-18T09:41:04;93426.53;;;13.12;91.19
3968;BME280;9221;42.646;23.380;2022-11-18T09:46:04;93424.75;;;13.26;92.70
3968;BME280;9221;42.646;23.380;2022-11-18T09:48:35;93323.16;;;13.27;91.35
3968;BME280;9221;42.646;23.380;2022-11-18T09:51:20;93326.34;;;13.64;89.83
3968;BME280;9221;42.646;23.380;2022-11-18T09:53:48;93409.00;;;14.14;87.96
3968;BME280;9221;42.646;23.380;2022-11-18T09:56:15;93360.88;;;14.24;86.78
3968;BME280;9221;42.646;23.380;2022-11-18T09:58:41;93365.38;;;14.30;86.08
3968;BME280;9221;42.646;23.380;2022-11-18T10:01:17;93341.31;;;14.32;86.55
3968;BME280;9221;42.646;23.380;2022-11-18T10:03:43;93364.19;;;14.46;86.35
3968;BME280;9221;42.646;23.380;2022-11-18T10:06:35;93371.94;;;14.54;85.91
3968;BME280;9221;42.646;23.380;2022-11-18T10:09:30;93370.50;;;14.52;84.22
3968;BME280;9221;42.646;23.380;2022-11-18T10:14:42;93412.75;;;14.53;85.48
3968;BME280;9221;42.646;23.380;2022-11-18T10:20:15;93327.84;;;14.00;85.46
3968;BME280;9221;42.646;23.380;2022-11-18T10:22:56;93336.84;;;14.12;85.66
3968;BME280;9221;42.646;23.380;2022-11-18T10:25:23;93315.63;;;14.12;85.17
3968;BME280;9221;42.646;23.380;2022-11-18T10:27:49;93301.53;;;14.05;85.74
3968;BME280;9221;42.646;23.380;2022-11-18T10:30:23;93376.41;;;14.20;85.53
3968;BME280;9221;42.646;23.380;2022-11-18T10:33:17;93293.59;;;14.25;85.22
3968;BME280;9221;42.646;23.380;2022-11-18T10:35:44;93331.31;;;14.54;85.74
3968;BME280;9221;42.646;23.380;2022-11-18T10:51:46;93277.94;;;15.09;77.00
3968;BME280;9221;42.646;23.380;2022-11-18T10:54:21;93238.00;;;14.77;80.30
3968;BME280;9221;42.646;23.380;2022-11-18T10:56:51;93266.94;;;14.99;80.93
3968;BME280;9221;42.646;23.380;2022-11-18T11:04:28;93282.53;;;14.48;83.02
3968;BME280;9221;42.646;23.380;2022-11-18T11:06:55;93298.84;;;14.72;83.55
3968;BME280;9221;42.646;23.380;2022-11-18T11:09:25;93323.78;;;14.71;82.57
3968;BME280;9221;42.646;23.380;2022-11-18T11:12:01;93292.53;;;14.73;82.45
3968;BME280;9221;42.646;23.380;2022-11-18T11:14:54;93233.22;;;14.27;81.59
3968;BME280;9221;42.646;23.380;2022-11-18T11:17:35;93248.91;;;14.29;81.95
3968;BME280;9221;42.646;23.380;2022-11-18T11:20:09;93331.09;;;14.69;81.50
3968;BME280;9221;42.646;23.380;2022-11-18T11:22:39;93309.06;;;14.42;81.50
3968;BME280;9221;42.646;23.380;2022-11-18T11:25:15;93278.84;;;14.76;81.19
3968;BME280;9221;42.646;23.380;2022-11-18T11:30:23;93292.50;;;14.86;81.47
3968;BME280;9221;42.646;23.380;2022-11-18T11:47:30;93267.84;;;14.66;82.24
3968;BME280;9221;42.646;23.380;2022-11-18T11:56:50;93294.38;;;14.52;83.11
3968;BME280;9221;42.646;23.380;2022-11-18T12:06:52;93260.91;;;14.45;82.72
3968;BME280;9221;42.646;23.380;2022-11-18T12:15:15;93256.63;;;14.50;83.76
3968;BME280;9221;42.646;23.380;2022-11-18T12:18:04;93250.72;;;14.42;83.27
3968;BME280;9221;42.646;23.380;2022-11-18T12:20:51;93260.31;;;14.49;83.02
3968;BME280;9221;42.646;23.380;2022-11-18T12:23:25;93191.63;;;14.14;82.78
3968;BME280;9221;42.646;23.380;2022-11-18T12:34:00;93150.84;;;14.15;83.67
3968;BME280;9221;42.646;23.380;2022-11-18T12:36:33;93212.13;;;14.59;83.44
3968;BME280;9221;42.646;23.380;2022-11-18T12:41:55;93161.03;;;14.18;83.25
3968;BME280;9221;42.646;23.380;2022-11-18T12:44:40;93218.22;;;14.60;83.50
3968;BME280;9221;42.646;23.380;2022-11-18T12:47:10;93232.28;;;14.80;83.56
3968;BME280;9221;42.646;23.380;2022-11-18T12:52:04;93173.22;;;14.33;83.17
3968;BME280;9221;42.646;23.380;2022-11-18T12:56:59;93195.13;;;14.80;82.76
3968;BME280;9221;42.646;23.380;2022-11-18T12:59:30;93181.69;;;14.75;82.82
3968;BME280;9221;42.646;23.380;2022-11-18T13:02:13;93183.84;;;14.92;82.81
3968;BME280;9221;42.646;23.380;2022-11-18T13:04:40;93191.81;;;14.92;82.52
3968;BME280;9221;42.646;23.380;2022-11-18T13:07:10;93210.41;;;14.92;81.74
3968;BME280;9221;42.646;23.380;2022-11-18T13:09:56;93175.47;;;14.95;81.06
3968;BME280;9221;42.646;23.380;2022-11-18T13:12:25;93208.53;;;14.99;80.71
3968;BME280;9221;42.646;23.380;2022-11-18T13:14:53;93145.03;;;14.97;80.62
3968;BME280;9221;42.646;23.380;2022-11-18T13:17:39;93174.97;;;15.11;79.69
3968;BME280;9221;42.646;23.380;2022-11-18T13:20:27;93181.72;;;15.07;79.52
3968;BME280;9221;42.646;23.380;2022-11-18T13:23:00;93105.13;;;14.72;79.21
3968;BME280;9221;42.646;23.380;2022-11-18T13:25:45;93162.72;;;15.10;77.52
3968;BME280;9221;42.646;23.380;2022-11-18T13:31:16;93141.03;;;15.45;74.77
3968;BME280;9221;42.646;23.380;2022-11-18T13:33:43;93145.28;;;15.53;73.49
3968;BME280;9221;42.646;23.380;2022-11-18T13:36:16;93148.03;;;15.65;73.17
3968;BME280;9221;42.646;23.380;2022-11-18T13:39:00;93147.63;;;15.68;73.62
3968;BME280;9221;42.646;23.380;2022-11-18T13:41:28;93054.16;;;15.46;67.24
3968;BME280;9221;42.646;23.380;2022-11-18T13:46:37;93073.78;;;16.32;63.04
3968;BME280;9221;42.646;23.380;2022-11-18T13:49:03;93156.00;;;16.71;61.51
3968;BME280;9221;42.646;23.380;2022-11-18T13:51:29;93097.28;;;16.66;60.60
3968;BME280;9221;42.646;23.380;2022-11-18T13:53:55;93180.75;;;17.08;59.26
3968;BME280;9221;42.646;23.380;2022-11-18T13:56:25;93103.34;;;16.91;59.95
3968;BME280;9221;42.646;23.380;2022-11-18T13:58:57;93098.00;;;16.91;60.66
3968;BME280;9221;42.646;23.380;2022-11-18T14:01:32;93152.66;;;17.24;60.32
3968;BME280;9221;42.646;23.380;2022-11-18T14:06:36;93163.91;;;17.27;60.98
3968;BME280;9221;42.646;23.380;2022-11-18T14:11:37;93063.53;;;16.97;59.66
3968;BME280;9221;42.646;23.380;2022-11-18T14:14:03;93154.91;;;17.39;60.09
3968;BME280;9221;42.646;23.380;2022-11-18T14:16:32;93108.81;;;17.39;59.46
3968;BME280;9221;42.646;23.380;2022-11-18T14:18:58;93088.16;;;17.34;58.67
3968;BME280;9221;42.646;23.380;2022-11-18T14:21:28;93086.22;;;17.41;57.84
3968;BME280;9221;42.646;23.380;2022-11-18T14:23:55;93117.03;;;17.49;57.84
3968;BME280;9221;42.646;23.380;2022-11-18T14:26:34;93143.81;;;17.54;57.87
3968;BME280;9221;42.646;23.380;2022-11-18T14:29:22;93107.19;;;17.62;57.37
3968;BME280;9221;42.646;23.380;2022-11-18T14:32:15;93111.97;;;17.83;57.62
3968;BME280;9221;42.646;23.380;2022-11-18T14:34:41;93129.13;;;17.64;57.92
3968;BME280;9221;42.646;23.380;2022-11-18T14:37:13;93144.75;;;17.48;58.49
3968;BME280;9221;42.646;23.380;2022-11-18T14:39:40;93148.44;;;17.47;59.21
3968;BME280;9221;42.646;23.380;2022-11-18T14:42:10;93114.56;;;17.36;59.88
3968;BME280;9221;42.646;23.380;2022-11-18T14:44:36;93045.47;;;16.99;59.32
3968;BME280;9221;42.646;23.380;2022-11-18T14:47:05;93140.56;;;17.40;58.83
3968;BME280;9221;42.646;23.380;2022-11-18T14:49:36;93084.97;;;17.14;58.50
3968;BME280;9221;42.646;23.380;2022-11-18T14:52:02;93153.78;;;17.47;58.12
3968;BME280;9221;42.646;23.380;2022-11-18T14:54:28;93074.78;;;16.80;57.90
3968;BME280;9221;42.646;23.380;2022-11-18T14:57:00;93148.88;;;17.44;57.38
3968;BME280;9221;42.646;23.380;2022-11-18T14:59:27;93147.19;;;17.50;57.47
3968;BME280;9221;42.646;23.380;2022-11-18T15:01:52;93152.66;;;17.67;58.11
3968;BME280;9221;42.646;23.380;2022-11-18T15:04:18;93163.31;;;17.67;57.62
3968;BME280;9221;42.646;23.380;2022-11-18T15:06:45;93123.31;;;17.13;58.95
3968;BME280;9221;42.646;23.380;2022-11-18T15:09:11;93163.13;;;17.38;60.26
3968;BME280;9221;42.646;23.380;2022-11-18T15:11:36;93131.22;;;17.19;60.84